sensor_id;sensor_type;location;lat;lon;timestamp;P1;durP1;ratioP1;P2;durP2;ratioP2
16314;SDS011;8266;52.150;4.768;2023-07-31T00:01:59;11.40;;;4.40;;
16314;SDS011;8266;52.150;4.768;2023-07-31T00:04:26;13.57;;;4.80;;
16314;SDS011;8266;52.150;4.768;2023-07-31T00:06:53;10.40;;;4.78;;
16314;SDS011;8266;52.150;4.768;2023-07-31T00:09:20;10.45;;;4.68;;
16314;SDS011;8266;52.150;4.768;2023-07-31T00:11:48;13.45;;;5.03;;
16314;SDS011;8266;52.150;4.768;2023-07-31T00:14:15;11.63;;;4.95;;
16314;SDS011;8266;52.150;4.768;2023-07-31T00:16:43;11.85;;;4.35;;
16314;SDS011;8266;52.150;4.768;2023-07-31T00:19:10;15.68;;;5.55;;
16314;SDS011;8266;52.150;4.768;2023-07-31T00:21:36;10.85;;;4.65;;
16314;SDS011;8266;52.150;4.768;2023-07-31T00:24:04;10.60;;;4.03;;
16314;SDS011;8266;52.150;4.768;2023-07-31T00:26:31;9.57;;;3.40;;
16314;SDS011;8266;52.150;4.768;2023-07-31T00:28:59;5.10;;;2.83;;
16314;SDS011;8266;52.150;4.768;2023-07-31T00:31:26;6.32;;;3.00;;
16314;SDS011;8266;52.150;4.768;2023-07-31T00:33:53;4.28;;;2.45;;
16314;SDS011;8266;52.150;4.768;2023-07-31T00:36:20;4.70;;;2.25;;
16314;SDS011;8266;52.150;4.768;2023-07-31T00:38:47;3.20;;;2.13;;
16314;SDS011;8266;52.150;4.768;2023-07-31T00:41:14;4.25;;;2.40;;
16314;SDS011;8266;52.150;4.768;2023-07-31T00:43:41;3.20;;;1.67;;
16314;SDS011;8266;52.150;4.768;2023-07-31T00:46:09;4.05;;;1.83;;
16314;SDS011;8266;52.150;4.768;2023-07-31T00:48:36;2.08;;;1.30;;
16314;SDS011;8266;52.150;4.768;2023-07-31T00:51:06;2.85;;;1.40;;
16314;SDS011;8266;52.150;4.768;2023-07-31T00:53:34;3.97;;;1.73;;
16314;SDS011;8266;52.150;4.768;2023-07-31T00:56:01;3.95;;;1.92;;
16314;SDS011;8266;52.150;4.768;2023-07-31T00:58:29;6.32;;;2.35;;
16314;SDS011;8266;52.150;4.768;2023-07-31T01:00:56;4.50;;;2.35;;
16314;SDS011;8266;52.150;4.768;2023-07-31T01:03:25;5.70;;;2.45;;
16314;SDS011;8266;52.150;4.768;2023-07-31T01:05:54;7.50;;;3.30;;
16314;SDS011;8266;52.150;4.768;2023-07-31T01:08:37;9.18;;;3.53;;
16314;SDS011;8266;52.150;4.768;2023-07-31T01:11:11;7.70;;;3.60;;
16314;SDS011;8266;52.150;4.768;2023-07-31T01:13:43;9.02;;;4.38;;
16314;SDS011;8266;52.150;4.768;2023-07-31T01:16:12;10.20;;;4.70;;
16314;SDS011;8266;52.150;4.768;2023-07-31T01:18:40;11.82;;;5.03;;
16314;SDS011;8266;52.150;4.768;2023-07-31T01:21:12;10.60;;;4.78;;
16314;SDS011;8266;52.150;4.768;2023-07-31T01:26:49;12.95;;;4.68;;
16314;SDS011;8266;52.150;4.768;2023-07-31T01:29:23;10.20;;;4.65;;
16314;SDS011;8266;52.150;4.768;2023-07-31T01:31:56;12.73;;;4.72;;
16314;SDS011;8266;52.150;4.768;2023-07-31T01:34:24;9.32;;;4.20;;
16314;SDS011;8266;52.150;4.768;2023-07-31T01:36:53;14.13;;;5.28;;
16314;SDS011;8266;52.150;4.768;2023-07-31T01:39:22;11.07;;;5.05;;
16314;SDS011;8266;52.150;4.768;2023-07-31T01:41:50;10.48;;;4.47;;
16314;SDS011;8266;52.150;4.768;2023-07-31T01:44:17;9.30;;;4.47;;
16314;SDS011;8266;52.150;4.768;2023-07-31T01:46:44;12.50;;;5.18;;
16314;SDS011;8266;52.150;4.768;2023-07-31T01:49:11;13.07;;;5.28;;
16314;SDS011;8266;52.150;4.768;2023-07-31T01:51:38;9.50;;;4.45;;
16314;SDS011;8266;52.150;4.768;2023-07-31T01:54:05;12.00;;;5.40;;
16314;SDS011;8266;52.150;4.768;2023-07-31T01:56:32;15.35;;;5.53;;
16314;SDS011;8266;52.150;4.768;2023-07-31T01:59:01;13.93;;;4.53;;
16314;SDS011;8266;52.150;4.768;2023-07-31T02:01:28;12.05;;;5.03;;
16314;SDS011;8266;52.150;4.768;2023-07-31T02:03:55;11.20;;;5.10;;
16314;SDS011;8266;52.150;4.768;2023-07-31T02:06:22;14.30;;;5.72;;
16314;SDS011;8266;52.150;4.768;2023-07-31T02:08:49;12.80;;;5.60;;
16314;SDS011;8266;52.150;4.768;2023-07-31T02:11:16;13.98;;;5.35;;
16314;SDS011;8266;52.150;4.768;2023-07-31T02:13:43;17.80;;;5.10;;
16314;SDS011;8266;52.150;4.768;2023-07-31T02:16:12;13.68;;;5.63;;
16314;SDS011;8266;52.150;4.768;2023-07-31T02:18:39;14.13;;;5.43;;
16314;SDS011;8266;52.150;4.768;2023-07-31T02:21:06;11.55;;;4.85;;
16314;SDS011;8266;52.150;4.768;2023-07-31T02:23:33;14.30;;;5.20;;
16314;SDS011;8266;52.150;4.768;2023-07-31T02:26:00;10.10;;;4.45;;
16314;SDS011;8266;52.150;4.768;2023-07-31T02:28:28;13.80;;;4.45;;
16314;SDS011;8266;52.150;4.768;2023-07-31T02:30:55;11.27;;;5.50;;
16314;SDS011;8266;52.150;4.768;2023-07-31T02:33:24;13.70;;;5.50;;
16314;SDS011;8266;52.150;4.768;2023-07-31T02:35:51;12.40;;;5.03;;
16314;SDS011;8266;52.150;4.768;2023-07-31T02:38:18;15.27;;;5.30;;
16314;SDS011;8266;52.150;4.768;2023-07-31T02:40:45;15.52;;;5.70;;
16314;SDS011;8266;52.150;4.768;2023-07-31T02:43:13;15.18;;;5.60;;
16314;SDS011;8266;52.150;4.768;2023-07-31T02:45:40;12.48;;;5.20;;
16314;SDS011;8266;52.150;4.768;2023-07-31T02:48:06;11.95;;;5.25;;
16314;SDS011;8266;52.150;4.768;2023-07-31T02:50:34;14.65;;;5.20;;
16314;SDS011;8266;52.150;4.768;2023-07-31T02:53:01;13.35;;;5.43;;
16314;SDS011;8266;52.150;4.768;2023-07-31T02:55:28;15.95;;;5.75;;
16314;SDS011;8266;52.150;4.768;2023-07-31T02:57:55;16.45;;;5.68;;
16314;SDS011;8266;52.150;4.768;2023-07-31T03:00:23;14.68;;;5.68;;
16314;SDS011;8266;52.150;4.768;2023-07-31T03:02:51;12.95;;;4.97;;
16314;SDS011;8266;52.150;4.768;2023-07-31T03:05:18;14.73;;;5.30;;
16314;SDS011;8266;52.150;4.768;2023-07-31T03:07:47;15.10;;;5.53;;
16314;SDS011;8266;52.150;4.768;2023-07-31T03:10:14;18.05;;;6.60;;
16314;SDS011;8266;52.150;4.768;2023-07-31T03:12:44;12.68;;;4.97;;
16314;SDS011;8266;52.150;4.768;2023-07-31T03:15:13;13.95;;;5.22;;
16314;SDS011;8266;52.150;4.768;2023-07-31T03:17:40;13.85;;;5.22;;
16314;SDS011;8266;52.150;4.768;2023-07-31T03:20:07;13.02;;;5.10;;
16314;SDS011;8266;52.150;4.768;2023-07-31T03:22:41;11.93;;;5.07;;
16314;SDS011;8266;52.150;4.768;2023-07-31T03:25:10;13.18;;;5.07;;
16314;SDS011;8266;52.150;4.768;2023-07-31T03:30:16;11.65;;;4.63;;
16314;SDS011;8266;52.150;4.768;2023-07-31T03:32:49;14.40;;;6.00;;
16314;SDS011;8266;52.150;4.768;2023-07-31T03:35:19;13.77;;;4.93;;
16314;SDS011;8266;52.150;4.768;2023-07-31T03:37:48;12.68;;;4.88;;
16314;SDS011;8266;52.150;4.768;2023-07-31T03:40:17;15.50;;;5.45;;
16314;SDS011;8266;52.150;4.768;2023-07-31T03:42:50;18.25;;;5.68;;
16314;SDS011;8266;52.150;4.768;2023-07-31T03:45:35;14.75;;;5.28;;
16314;SDS011;8266;52.150;4.768;2023-07-31T03:48:03;11.90;;;5.40;;
16314;SDS011;8266;52.150;4.768;2023-07-31T03:50:37;14.20;;;5.60;;
16314;SDS011;8266;52.150;4.768;2023-07-31T03:53:06;10.50;;;4.45;;
16314;SDS011;8266;52.150;4.768;2023-07-31T03:55:35;11.00;;;4.47;;
16314;SDS011;8266;52.150;4.768;2023-07-31T03:58:07;12.70;;;4.90;;
16314;SDS011;8266;52.150;4.768;2023-07-31T04:00:35;12.68;;;4.95;;
16314;SDS011;8266;52.150;4.768;2023-07-31T04:03:12;11.93;;;4.50;;
16314;SDS011;8266;52.150;4.768;2023-07-31T04:05:39;11.85;;;4.60;;
16314;SDS011;8266;52.150;4.768;2023-07-31T04:08:08;13.55;;;5.22;;
16314;SDS011;8266;52.150;4.768;2023-07-31T04:10:36;12.00;;;4.53;;
16314;SDS011;8266;52.150;4.768;2023-07-31T04:13:03;15.57;;;5.00;;
16314;SDS011;8266;52.150;4.768;2023-07-31T04:15:30;11.65;;;4.47;;
16314;SDS011;8266;52.150;4.768;2023-07-31T04:17:57;10.15;;;4.18;;
16314;SDS011;8266;52.150;4.768;2023-07-31T04:20:24;10.40;;;3.92;;
16314;SDS011;8266;52.150;4.768;2023-07-31T04:22:51;9.63;;;3.85;;
16314;SDS011;8266;52.150;4.768;2023-07-31T04:25:18;10.57;;;3.78;;
16314;SDS011;8266;52.150;4.768;2023-07-31T04:27:47;10.18;;;3.95;;
16314;SDS011;8266;52.150;4.768;2023-07-31T04:30:15;7.88;;;3.13;;
16314;SDS011;8266;52.150;4.768;2023-07-31T04:32:44;7.72;;;3.60;;
16314;SDS011;8266;52.150;4.768;2023-07-31T04:35:11;7.68;;;3.05;;
16314;SDS011;8266;52.150;4.768;2023-07-31T04:37:38;8.43;;;3.60;;
16314;SDS011;8266;52.150;4.768;2023-07-31T04:40:05;5.55;;;3.20;;
16314;SDS011;8266;52.150;4.768;2023-07-31T04:42:33;6.57;;;3.30;;
16314;SDS011;8266;52.150;4.768;2023-07-31T04:45:02;6.30;;;3.03;;
16314;SDS011;8266;52.150;4.768;2023-07-31T04:47:30;4.10;;;2.30;;
16314;SDS011;8266;52.150;4.768;2023-07-31T04:49:58;3.45;;;2.38;;
16314;SDS011;8266;52.150;4.768;2023-07-31T04:52:25;7.18;;;3.88;;
16314;SDS011;8266;52.150;4.768;2023-07-31T04:54:52;5.45;;;3.65;;
16314;SDS011;8266;52.150;4.768;2023-07-31T04:57:25;4.80;;;3.00;;
16314;SDS011;8266;52.150;4.768;2023-07-31T04:59:52;4.25;;;2.40;;
16314;SDS011;8266;52.150;4.768;2023-07-31T05:02:20;3.47;;;2.10;;
16314;SDS011;8266;52.150;4.768;2023-07-31T05:04:59;4.68;;;2.47;;
16314;SDS011;8266;52.150;4.768;2023-07-31T05:07:26;3.42;;;2.00;;
16314;SDS011;8266;52.150;4.768;2023-07-31T05:09:53;2.00;;;1.75;;
16314;SDS011;8266;52.150;4.768;2023-07-31T05:12:22;3.38;;;1.63;;
16314;SDS011;8266;52.150;4.768;2023-07-31T05:14:50;3.42;;;1.60;;
16314;SDS011;8266;52.150;4.768;2023-07-31T05:17:19;2.28;;;1.60;;
16314;SDS011;8266;52.150;4.768;2023-07-31T05:19:46;2.22;;;1.50;;
16314;SDS011;8266;52.150;4.768;2023-07-31T05:22:13;2.35;;;1.63;;
16314;SDS011;8266;52.150;4.768;2023-07-31T05:24:40;2.45;;;1.70;;
16314;SDS011;8266;52.150;4.768;2023-07-31T05:27:07;2.80;;;1.42;;
16314;SDS011;8266;52.150;4.768;2023-07-31T05:29:34;1.75;;;1.52;;
16314;SDS011;8266;52.150;4.768;2023-07-31T05:32:03;2.30;;;1.90;;
16314;SDS011;8266;52.150;4.768;2023-07-31T05:34:32;2.47;;;1.75;;
16314;SDS011;8266;52.150;4.768;2023-07-31T05:39:39;2.33;;;1.88;;
16314;SDS011;8266;52.150;4.768;2023-07-31T05:45:04;2.10;;;1.63;;
16314;SDS011;8266;52.150;4.768;2023-07-31T05:47:48;1.60;;;1.33;;
16314;SDS011;8266;52.150;4.768;2023-07-31T05:50:22;2.47;;;1.67;;
16314;SDS011;8266;52.150;4.768;2023-07-31T05:52:49;2.80;;;1.50;;
16314;SDS011;8266;52.150;4.768;2023-07-31T05:55:18;3.90;;;1.90;;
16314;SDS011;8266;52.150;4.768;2023-07-31T05:57:46;3.22;;;1.52;;
16314;SDS011;8266;52.150;4.768;2023-07-31T06:00:13;2.10;;;1.38;;
16314;SDS011;8266;52.150;4.768;2023-07-31T06:02:41;1.95;;;1.48;;
16314;SDS011;8266;52.150;4.768;2023-07-31T06:05:08;2.40;;;1.45;;
16314;SDS011;8266;52.150;4.768;2023-07-31T06:07:36;3.33;;;1.92;;
16314;SDS011;8266;52.150;4.768;2023-07-31T06:10:04;2.30;;;1.20;;
16314;SDS011;8266;52.150;4.768;2023-07-31T06:12:32;2.05;;;1.35;;
16314;SDS011;8266;52.150;4.768;2023-07-31T06:15:01;3.13;;;1.30;;
16314;SDS011;8266;52.150;4.768;2023-07-31T06:17:29;1.95;;;1.27;;
16314;SDS011;8266;52.150;4.768;2023-07-31T06:19:57;0.98;;;0.88;;
16314;SDS011;8266;52.150;4.768;2023-07-31T06:22:32;1.65;;;1.02;;
16314;SDS011;8266;52.150;4.768;2023-07-31T06:25:02;1.38;;;1.08;;
16314;SDS011;8266;52.150;4.768;2023-07-31T06:27:40;1.95;;;1.13;;
16314;SDS011;8266;52.150;4.768;2023-07-31T06:30:10;2.78;;;0.90;;
16314;SDS011;8266;52.150;4.768;2023-07-31T06:35:06;1.70;;;1.10;;
16314;SDS011;8266;52.150;4.768;2023-07-31T06:37:34;2.80;;;1.38;;
16314;SDS011;8266;52.150;4.768;2023-07-31T06:40:02;1.30;;;1.13;;
16314;SDS011;8266;52.150;4.768;2023-07-31T06:42:32;0.88;;;0.73;;
16314;SDS011;8266;52.150;4.768;2023-07-31T06:45:00;1.73;;;0.85;;
16314;SDS011;8266;52.150;4.768;2023-07-31T06:47:29;1.08;;;0.85;;
16314;SDS011;8266;52.150;4.768;2023-07-31T06:49:57;1.45;;;0.82;;
16314;SDS011;8266;52.150;4.768;2023-07-31T06:52:24;1.25;;;1.00;;
16314;SDS011;8266;52.150;4.768;2023-07-31T06:55:00;0.70;;;0.70;;
16314;SDS011;8266;52.150;4.768;2023-07-31T06:57:29;1.25;;;0.80;;
16314;SDS011;8266;52.150;4.768;2023-07-31T06:59:56;0.85;;;0.70;;
16314;SDS011;8266;52.150;4.768;2023-07-31T07:02:23;1.00;;;0.77;;
16314;SDS011;8266;52.150;4.768;2023-07-31T07:04:50;1.27;;;0.50;;
16314;SDS011;8266;52.150;4.768;2023-07-31T07:07:24;0.93;;;0.80;;
16314;SDS011;8266;52.150;4.768;2023-07-31T07:09:51;0.63;;;0.63;;
16314;SDS011;8266;52.150;4.768;2023-07-31T07:12:20;0.57;;;0.55;;
16314;SDS011;8266;52.150;4.768;2023-07-31T07:14:47;0.50;;;0.50;;
16314;SDS011;8266;52.150;4.768;2023-07-31T07:17:14;1.02;;;0.40;;
16314;SDS011;8266;52.150;4.768;2023-07-31T07:19:41;0.93;;;0.60;;
16314;SDS011;8266;52.150;4.768;2023-07-31T07:22:08;0.45;;;0.45;;
16314;SDS011;8266;52.150;4.768;2023-07-31T07:24:36;0.63;;;0.40;;
16314;SDS011;8266;52.150;4.768;2023-07-31T07:27:03;0.32;;;0.32;;
16314;SDS011;8266;52.150;4.768;2023-07-31T07:29:33;0.65;;;0.47;;
16314;SDS011;8266;52.150;4.768;2023-07-31T07:32:01;0.43;;;0.40;;
16314;SDS011;8266;52.150;4.768;2023-07-31T07:34:28;0.68;;;0.30;;
16314;SDS011;8266;52.150;4.768;2023-07-31T07:37:02;0.40;;;0.40;;
16314;SDS011;8266;52.150;4.768;2023-07-31T07:39:29;0.38;;;0.30;;
16314;SDS011;8266;52.150;4.768;2023-07-31T07:42:14;0.40;;;0.40;;
16314;SDS011;8266;52.150;4.768;2023-07-31T07:44:43;0.35;;;0.30;;
16314;SDS011;8266;52.150;4.768;2023-07-31T07:47:13;1.10;;;0.60;;
16314;SDS011;8266;52.150;4.768;2023-07-31T07:49:41;0.30;;;0.30;;
16314;SDS011;8266;52.150;4.768;2023-07-31T07:52:09;0.30;;;0.30;;
16314;SDS011;8266;52.150;4.768;2023-07-31T07:54:36;0.35;;;0.30;;
16314;SDS011;8266;52.150;4.768;2023-07-31T07:57:03;0.43;;;0.35;;
16314;SDS011;8266;52.150;4.768;2023-07-31T07:59:38;1.15;;;0.40;;
16314;SDS011;8266;52.150;4.768;2023-07-31T08:02:06;0.40;;;0.30;;
16314;SDS011;8266;52.150;4.768;2023-07-31T08:04:40;0.32;;;0.30;;
16314;SDS011;8266;52.150;4.768;2023-07-31T08:07:07;1.02;;;0.30;;
16314;SDS011;8266;52.150;4.768;2023-07-31T08:09:36;0.20;;;0.20;;
16314;SDS011;8266;52.150;4.768;2023-07-31T08:12:14;0.47;;;0.35;;
16314;SDS011;8266;52.150;4.768;2023-07-31T08:14:41;1.23;;;0.38;;
16314;SDS011;8266;52.150;4.768;2023-07-31T08:19:55;0.30;;;0.30;;
16314;SDS011;8266;52.150;4.768;2023-07-31T08:22:23;0.30;;;0.30;;
16314;SDS011;8266;52.150;4.768;2023-07-31T08:24:50;0.20;;;0.20;;
16314;SDS011;8266;52.150;4.768;2023-07-31T08:27:17;0.30;;;0.30;;
16314;SDS011;8266;52.150;4.768;2023-07-31T08:29:45;0.20;;;0.20;;
16314;SDS011;8266;52.150;4.768;2023-07-31T08:32:12;0.57;;;0.30;;
16314;SDS011;8266;52.150;4.768;2023-07-31T08:34:41;0.30;;;0.25;;
16314;SDS011;8266;52.150;4.768;2023-07-31T08:37:08;0.20;;;0.20;;
16314;SDS011;8266;52.150;4.768;2023-07-31T08:39:36;0.60;;;0.30;;
16314;SDS011;8266;52.150;4.768;2023-07-31T08:42:07;0.35;;;0.20;;
16314;SDS011;8266;52.150;4.768;2023-07-31T08:44:34;1.17;;;0.30;;
16314;SDS011;8266;52.150;4.768;2023-07-31T08:47:11;0.80;;;0.45;;
16314;SDS011;8266;52.150;4.768;2023-07-31T08:49:41;0.40;;;0.28;;
16314;SDS011;8266;52.150;4.768;2023-07-31T08:52:10;1.25;;;0.52;;
16314;SDS011;8266;52.150;4.768;2023-07-31T08:54:37;3.88;;;0.80;;
16314;SDS011;8266;52.150;4.768;2023-07-31T08:57:06;2.20;;;0.80;;
16314;SDS011;8266;52.150;4.768;2023-07-31T09:02:35;2.58;;;1.23;;
16314;SDS011;8266;52.150;4.768;2023-07-31T09:05:08;2.72;;;1.33;;
16314;SDS011;8266;52.150;4.768;2023-07-31T09:07:37;1.48;;;1.00;;
16314;SDS011;8266;52.150;4.768;2023-07-31T09:10:17;3.10;;;1.20;;
16314;SDS011;8266;52.150;4.768;2023-07-31T09:12:44;3.65;;;1.40;;
16314;SDS011;8266;52.150;4.768;2023-07-31T09:15:21;2.85;;;1.25;;
16314;SDS011;8266;52.150;4.768;2023-07-31T09:17:50;2.67;;;1.00;;
16314;SDS011;8266;52.150;4.768;2023-07-31T09:20:27;3.55;;;1.20;;
16314;SDS011;8266;52.150;4.768;2023-07-31T09:23:11;2.33;;;0.93;;
16314;SDS011;8266;52.150;4.768;2023-07-31T09:25:52;2.38;;;1.13;;
16314;SDS011;8266;52.150;4.768;2023-07-31T09:31:06;1.25;;;0.90;;
16314;SDS011;8266;52.150;4.768;2023-07-31T09:33:34;6.38;;;1.35;;
16314;SDS011;8266;52.150;4.768;2023-07-31T09:36:22;4.75;;;1.70;;
16314;SDS011;8266;52.150;4.768;2023-07-31T09:38:50;8.02;;;1.92;;
16314;SDS011;8266;52.150;4.768;2023-07-31T09:41:17;4.80;;;1.83;;
16314;SDS011;8266;52.150;4.768;2023-07-31T09:43:52;5.28;;;1.98;;
16314;SDS011;8266;52.150;4.768;2023-07-31T09:46:19;8.50;;;2.03;;
16314;SDS011;8266;52.150;4.768;2023-07-31T09:48:47;4.32;;;1.67;;
16314;SDS011;8266;52.150;4.768;2023-07-31T09:51:18;7.03;;;2.53;;
16314;SDS011;8266;52.150;4.768;2023-07-31T09:53:57;4.78;;;2.03;;
16314;SDS011;8266;52.150;4.768;2023-07-31T09:56:32;4.88;;;2.13;;
16314;SDS011;8266;52.150;4.768;2023-07-31T09:59:01;2.60;;;1.52;;
16314;SDS011;8266;52.150;4.768;2023-07-31T10:01:30;5.78;;;1.83;;
16314;SDS011;8266;52.150;4.768;2023-07-31T10:03:58;6.25;;;1.92;;
16314;SDS011;8266;52.150;4.768;2023-07-31T10:06:25;4.85;;;1.80;;
16314;SDS011;8266;52.150;4.768;2023-07-31T10:08:54;4.00;;;2.10;;
16314;SDS011;8266;52.150;4.768;2023-07-31T10:11:22;3.53;;;1.83;;
16314;SDS011;8266;52.150;4.768;2023-07-31T10:13:50;3.28;;;1.40;;
16314;SDS011;8266;52.150;4.768;2023-07-31T10:16:22;6.45;;;1.95;;
16314;SDS011;8266;52.150;4.768;2023-07-31T10:18:56;5.90;;;2.15;;
16314;SDS011;8266;52.150;4.768;2023-07-31T10:21:24;4.35;;;1.95;;
16314;SDS011;8266;52.150;4.768;2023-07-31T10:24:04;4.28;;;1.85;;
16314;SDS011;8266;52.150;4.768;2023-07-31T10:26:33;3.65;;;1.15;;
16314;SDS011;8266;52.150;4.768;2023-07-31T10:29:02;4.50;;;1.30;;
16314;SDS011;8266;52.150;4.768;2023-07-31T10:31:30;2.33;;;1.33;;
16314;SDS011;8266;52.150;4.768;2023-07-31T10:33:57;2.78;;;1.17;;
16314;SDS011;8266;52.150;4.768;2023-07-31T10:36:26;3.70;;;1.30;;
16314;SDS011;8266;52.150;4.768;2023-07-31T10:38:55;2.30;;;1.27;;
16314;SDS011;8266;52.150;4.768;2023-07-31T10:41:29;4.05;;;1.50;;
16314;SDS011;8266;52.150;4.768;2023-07-31T10:43:57;1.83;;;1.30;;
16314;SDS011;8266;52.150;4.768;2023-07-31T10:46:25;3.22;;;1.52;;
16314;SDS011;8266;52.150;4.768;2023-07-31T10:48:57;2.60;;;1.63;;
16314;SDS011;8266;52.150;4.768;2023-07-31T10:51:34;4.80;;;2.30;;
16314;SDS011;8266;52.150;4.768;2023-07-31T10:54:11;3.88;;;1.95;;
16314;SDS011;8266;52.150;4.768;2023-07-31T10:56:40;4.82;;;2.05;;
16314;SDS011;8266;52.150;4.768;2023-07-31T10:59:12;5.75;;;1.88;;
16314;SDS011;8266;52.150;4.768;2023-07-31T11:01:51;6.80;;;2.35;;
16314;SDS011;8266;52.150;4.768;2023-07-31T11:04:23;4.75;;;1.58;;
16314;SDS011;8266;52.150;4.768;2023-07-31T11:06:57;8.52;;;1.65;;
16314;SDS011;8266;52.150;4.768;2023-07-31T11:09:27;5.70;;;2.47;;
16314;SDS011;8266;52.150;4.768;2023-07-31T11:11:57;6.07;;;2.28;;
16314;SDS011;8266;52.150;4.768;2023-07-31T11:14:24;7.13;;;2.00;;
16314;SDS011;8266;52.150;4.768;2023-07-31T11:16:52;6.15;;;2.03;;
16314;SDS011;8266;52.150;4.768;2023-07-31T11:19:26;5.43;;;1.80;;
16314;SDS011;8266;52.150;4.768;2023-07-31T11:21:53;4.60;;;1.80;;
16314;SDS011;8266;52.150;4.768;2023-07-31T11:24:21;2.88;;;1.67;;
16314;SDS011;8266;52.150;4.768;2023-07-31T11:26:49;5.80;;;1.90;;
16314;SDS011;8266;52.150;4.768;2023-07-31T11:29:19;5.63;;;1.92;;
16314;SDS011;8266;52.150;4.768;2023-07-31T11:31:47;6.18;;;1.70;;
16314;SDS011;8266;52.150;4.768;2023-07-31T11:34:14;4.53;;;1.77;;
16314;SDS011;8266;52.150;4.768;2023-07-31T11:36:52;4.85;;;1.67;;
16314;SDS011;8266;52.150;4.768;2023-07-31T11:39:19;4.78;;;1.80;;
16314;SDS011;8266;52.150;4.768;2023-07-31T11:41:47;4.32;;;1.73;;
16314;SDS011;8266;52.150;4.768;2023-07-31T11:44:14;6.07;;;2.13;;
16314;SDS011;8266;52.150;4.768;2023-07-31T11:46:42;6.65;;;2.20;;
16314;SDS011;8266;52.150;4.768;2023-07-31T11:49:09;3.03;;;1.60;;
16314;SDS011;8266;52.150;4.768;2023-07-31T11:51:37;6.25;;;2.00;;
16314;SDS011;8266;52.150;4.768;2023-07-31T11:54:05;5.20;;;1.70;;
16314;SDS011;8266;52.150;4.768;2023-07-31T11:56:38;4.07;;;1.65;;
16314;SDS011;8266;52.150;4.768;2023-07-31T11:59:05;5.60;;;1.92;;
16314;SDS011;8266;52.150;4.768;2023-07-31T12:01:33;3.97;;;1.33;;
16314;SDS011;8266;52.150;4.768;2023-07-31T12:04:02;6.65;;;1.40;;
16314;SDS011;8266;52.150;4.768;2023-07-31T12:06:32;5.68;;;1.60;;
16314;SDS011;8266;52.150;4.768;2023-07-31T12:09:00;3.58;;;1.40;;
16314;SDS011;8266;52.150;4.768;2023-07-31T12:11:31;2.80;;;1.48;;
16314;SDS011;8266;52.150;4.768;2023-07-31T12:14:21;4.18;;;1.30;;
16314;SDS011;8266;52.150;4.768;2023-07-31T12:16:52;3.15;;;1.33;;
16314;SDS011;8266;52.150;4.768;2023-07-31T12:19:22;2.83;;;1.42;;
16314;SDS011;8266;52.150;4.768;2023-07-31T12:21:49;4.57;;;1.75;;
16314;SDS011;8266;52.150;4.768;2023-07-31T12:24:18;3.22;;;1.35;;
16314;SDS011;8266;52.150;4.768;2023-07-31T12:26:45;3.40;;;1.35;;
16314;SDS011;8266;52.150;4.768;2023-07-31T12:29:12;3.53;;;1.00;;
16314;SDS011;8266;52.150;4.768;2023-07-31T12:31:40;2.38;;;1.10;;
16314;SDS011;8266;52.150;4.768;2023-07-31T12:34:15;3.40;;;1.10;;
16314;SDS011;8266;52.150;4.768;2023-07-31T12:36:45;2.47;;;1.05;;
16314;SDS011;8266;52.150;4.768;2023-07-31T12:39:20;3.60;;;1.20;;
16314;SDS011;8266;52.150;4.768;2023-07-31T12:41:47;3.80;;;1.23;;
16314;SDS011;8266;52.150;4.768;2023-07-31T12:44:29;1.67;;;1.00;;
16314;SDS011;8266;52.150;4.768;2023-07-31T12:46:58;3.53;;;1.42;;
16314;SDS011;8266;52.150;4.768;2023-07-31T12:49:25;3.20;;;1.45;;
16314;SDS011;8266;52.150;4.768;2023-07-31T12:51:53;3.67;;;1.23;;
16314;SDS011;8266;52.150;4.768;2023-07-31T12:54:21;2.63;;;0.95;;
16314;SDS011;8266;52.150;4.768;2023-07-31T12:56:48;3.83;;;1.25;;
16314;SDS011;8266;52.150;4.768;2023-07-31T12:59:15;2.60;;;1.13;;
16314;SDS011;8266;52.150;4.768;2023-07-31T13:01:42;2.88;;;1.35;;
16314;SDS011;8266;52.150;4.768;2023-07-31T13:04:09;3.33;;;1.30;;
16314;SDS011;8266;52.150;4.768;2023-07-31T13:06:36;3.42;;;1.60;;
16314;SDS011;8266;52.150;4.768;2023-07-31T13:09:04;3.33;;;1.13;;
16314;SDS011;8266;52.150;4.768;2023-07-31T13:11:40;2.05;;;1.02;;
16314;SDS011;8266;52.150;4.768;2023-07-31T13:14:07;3.42;;;1.20;;
16314;SDS011;8266;52.150;4.768;2023-07-31T13:16:34;3.13;;;1.10;;
16314;SDS011;8266;52.150;4.768;2023-07-31T13:19:02;2.20;;;1.08;;
16314;SDS011;8266;52.150;4.768;2023-07-31T13:21:30;1.67;;;0.68;;
16314;SDS011;8266;52.150;4.768;2023-07-31T13:23:56;2.53;;;0.85;;
16314;SDS011;8266;52.150;4.768;2023-07-31T13:26:27;0.70;;;0.68;;
16314;SDS011;8266;52.150;4.768;2023-07-31T13:28:54;1.38;;;0.60;;
16314;SDS011;8266;52.150;4.768;2023-07-31T13:31:22;1.30;;;0.75;;
16314;SDS011;8266;52.150;4.768;2023-07-31T13:33:49;1.40;;;0.60;;
16314;SDS011;8266;52.150;4.768;2023-07-31T13:36:16;1.50;;;0.68;;
16314;SDS011;8266;52.150;4.768;2023-07-31T13:38:43;1.42;;;0.70;;
16314;SDS011;8266;52.150;4.768;2023-07-31T13:41:10;1.73;;;0.68;;
16314;SDS011;8266;52.150;4.768;2023-07-31T13:43:38;1.92;;;0.80;;
16314;SDS011;8266;52.150;4.768;2023-07-31T13:46:06;0.90;;;0.63;;
16314;SDS011;8266;52.150;4.768;2023-07-31T13:48:35;2.75;;;1.50;;
16314;SDS011;8266;52.150;4.768;2023-07-31T13:51:03;1.20;;;0.70;;
16314;SDS011;8266;52.150;4.768;2023-07-31T13:53:30;0.50;;;0.50;;
16314;SDS011;8266;52.150;4.768;2023-07-31T13:55:57;0.90;;;0.70;;
16314;SDS011;8266;52.150;4.768;2023-07-31T13:58:24;0.82;;;0.75;;
16314;SDS011;8266;52.150;4.768;2023-07-31T14:00:52;0.93;;;0.70;;
16314;SDS011;8266;52.150;4.768;2023-07-31T14:03:19;1.27;;;0.50;;
16314;SDS011;8266;52.150;4.768;2023-07-31T14:05:46;1.42;;;0.90;;
16314;SDS011;8266;52.150;4.768;2023-07-31T14:08:13;0.50;;;0.30;;
16314;SDS011;8266;52.150;4.768;2023-07-31T14:10:40;0.38;;;0.38;;
16314;SDS011;8266;52.150;4.768;2023-07-31T14:13:07;0.52;;;0.38;;
16314;SDS011;8266;52.150;4.768;2023-07-31T14:15:34;0.32;;;0.30;;
16314;SDS011;8266;52.150;4.768;2023-07-31T14:18:03;0.75;;;0.45;;
16314;SDS011;8266;52.150;4.768;2023-07-31T14:20:30;2.15;;;0.60;;
16314;SDS011;8266;52.150;4.768;2023-07-31T14:22:57;0.40;;;0.40;;
16314;SDS011;8266;52.150;4.768;2023-07-31T14:25:24;0.57;;;0.25;;
16314;SDS011;8266;52.150;4.768;2023-07-31T14:27:51;0.38;;;0.30;;
16314;SDS011;8266;52.150;4.768;2023-07-31T14:30:18;0.40;;;0.20;;
16314;SDS011;8266;52.150;4.768;2023-07-31T14:32:45;0.57;;;0.22;;
16314;SDS011;8266;52.150;4.768;2023-07-31T14:35:14;0.20;;;0.20;;
16314;SDS011;8266;52.150;4.768;2023-07-31T14:37:41;0.63;;;0.28;;
16314;SDS011;8266;52.150;4.768;2023-07-31T14:40:10;0.28;;;0.28;;
16314;SDS011;8266;52.150;4.768;2023-07-31T14:42:38;0.30;;;0.30;;
16314;SDS011;8266;52.150;4.768;2023-07-31T14:45:06;0.75;;;0.38;;
16314;SDS011;8266;52.150;4.768;2023-07-31T14:47:36;0.50;;;0.50;;
16314;SDS011;8266;52.150;4.768;2023-07-31T14:50:04;0.32;;;0.30;;
16314;SDS011;8266;52.150;4.768;2023-07-31T14:52:35;0.40;;;0.40;;
16314;SDS011;8266;52.150;4.768;2023-07-31T14:55:02;0.30;;;0.30;;
16314;SDS011;8266;52.150;4.768;2023-07-31T14:57:31;0.30;;;0.30;;
16314;SDS011;8266;52.150;4.768;2023-07-31T14:59:58;0.20;;;0.20;;
16314;SDS011;8266;52.150;4.768;2023-07-31T15:02:26;0.40;;;0.38;;
16314;SDS011;8266;52.150;4.768;2023-07-31T15:04:53;0.20;;;0.20;;
16314;SDS011;8266;52.150;4.768;2023-07-31T15:07:20;0.40;;;0.30;;
16314;SDS011;8266;52.150;4.768;2023-07-31T15:09:50;0.20;;;0.20;;
16314;SDS011;8266;52.150;4.768;2023-07-31T15:12:17;0.47;;;0.20;;
16314;SDS011;8266;52.150;4.768;2023-07-31T15:14:47;0.25;;;0.20;;
16314;SDS011;8266;52.150;4.768;2023-07-31T15:17:15;0.10;;;0.10;;
16314;SDS011;8266;52.150;4.768;2023-07-31T15:19:42;0.20;;;0.20;;
16314;SDS011;8266;52.150;4.768;2023-07-31T15:22:09;0.20;;;0.20;;
16314;SDS011;8266;52.150;4.768;2023-07-31T15:27:18;0.30;;;0.20;;
16314;SDS011;8266;52.150;4.768;2023-07-31T15:29:49;0.15;;;0.10;;
16314;SDS011;8266;52.150;4.768;2023-07-31T15:32:23;0.25;;;0.20;;
16314;SDS011;8266;52.150;4.768;2023-07-31T15:34:56;4.88;;;0.40;;